createdAt,value
2017-11-14T00:01:10.022Z,4.60
2017-11-14T00:03:38.074Z,3.43
2017-11-14T00:06:06.272Z,10.37
2017-11-14T00:08:34.342Z,3.43
2017-11-14T00:11:02.358Z,4.30
2017-11-14T00:13:30.395Z,4.77
2017-11-14T00:15:58.460Z,5.80
2017-11-14T00:18:27.071Z,5.20
2017-11-14T00:20:55.058Z,7.53
2017-11-14T00:23:24.687Z,5.00
2017-11-14T00:25:52.843Z,5.57
2017-11-14T00:28:20.926Z,7.70
2017-11-14T00:30:49.018Z,5.67
2017-11-14T00:33:17.038Z,6.63
2017-11-14T00:35:45.168Z,10.20
2017-11-14T00:38:13.869Z,8.27
2017-11-14T00:40:42.699Z,10.60
2017-11-14T00:43:10.722Z,8.43
2017-11-14T00:45:38.959Z,8.10
2017-11-14T00:48:10.641Z,8.20
2017-11-14T00:50:40.022Z,7.97
2017-11-14T00:53:08.184Z,11.37
2017-11-14T00:55:36.234Z,9.60
2017-11-14T00:58:09.954Z,9.70
2017-11-14T01:00:39.280Z,8.70
2017-11-14T01:03:07.332Z,11.47
2017-11-14T01:05:36.128Z,10.20
2017-11-14T01:08:04.154Z,8.27
2017-11-14T01:10:32.423Z,10.37
2017-11-14T01:13:01.991Z,12.53
2017-11-14T01:15:30.137Z,8.93
2017-11-14T01:17:58.939Z,11.17
2017-11-14T01:20:26.938Z,8.20
2017-11-14T01:22:55.069Z,9.80
2017-11-14T01:25:23.101Z,7.13
2017-11-14T01:27:52.343Z,8.20
2017-11-14T01:30:20.337Z,7.70
2017-11-14T01:32:48.294Z,9.57
2017-11-14T01:35:16.387Z,8.30
2017-11-14T01:37:44.430Z,8.73
2017-11-14T01:40:12.490Z,10.93
2017-11-14T01:42:40.508Z,10.60
2017-11-14T01:45:08.517Z,9.67
2017-11-14T01:47:38.093Z,9.80
2017-11-14T01:50:06.141Z,8.20
2017-11-14T01:52:35.116Z,9.00
2017-11-14T01:55:04.070Z,11.27
2017-11-14T01:57:32.757Z,8.23
2017-11-14T02:00:00.793Z,8.37
2017-11-14T02:02:28.793Z,8.23
2017-11-14T02:04:56.860Z,10.87
2017-11-14T02:07:27.202Z,8.13
2017-11-14T02:09:55.224Z,8.90
2017-11-14T02:12:23.443Z,9.70
2017-11-14T02:14:51.622Z,9.10
2017-11-14T02:17:19.753Z,9.17
2017-11-14T02:19:47.806Z,7.57
2017-11-14T02:22:16.860Z,7.97
2017-11-14T02:24:46.215Z,7.83
2017-11-14T02:27:14.261Z,6.63
2017-11-14T02:29:42.242Z,6.60
2017-11-14T02:32:10.289Z,8.70
2017-11-14T02:34:38.397Z,6.57
2017-11-14T02:37:06.408Z,5.60
2017-11-14T02:39:34.363Z,6.13
2017-11-14T02:42:05.892Z,5.73
2017-11-14T02:44:33.887Z,5.30
2017-11-14T02:47:01.940Z,6.70
2017-11-14T02:49:29.949Z,4.97
2017-11-14T02:51:57.996Z,7.80
2017-11-14T02:54:25.990Z,7.03
2017-11-14T02:56:53.983Z,5.27
2017-11-14T02:59:21.962Z,6.37
2017-11-14T03:01:49.964Z,5.77
2017-11-14T03:04:17.931Z,19.70
2017-11-14T03:06:45.956Z,9.60
2017-11-14T03:09:13.976Z,11.10
2017-11-14T03:11:42.001Z,7.27
2017-11-14T03:14:10.555Z,6.17
2017-11-14T03:16:38.619Z,8.17
2017-11-14T03:19:06.605Z,6.53
2017-11-14T03:21:34.623Z,6.50
2017-11-14T03:24:02.779Z,9.50
2017-11-14T03:26:31.057Z,8.67
2017-11-14T03:28:59.140Z,9.93
2017-11-14T03:31:28.213Z,10.57
2017-11-14T03:33:56.476Z,7.80
2017-11-14T03:36:24.586Z,7.53
2017-11-14T03:38:52.584Z,9.20
2017-11-14T03:41:20.599Z,7.03
2017-11-14T03:43:48.996Z,8.70
2017-11-14T03:46:17.047Z,8.73
2017-11-14T03:48:46.348Z,8.10
2017-11-14T03:51:14.322Z,10.60
2017-11-14T03:53:42.311Z,10.40
2017-11-14T03:56:10.765Z,9.13
2017-11-14T03:58:38.821Z,11.10
2017-11-14T04:01:06.996Z,10.60
2017-11-14T04:03:35.019Z,9.83
2017-11-14T04:06:03.840Z,9.40
2017-11-14T04:08:31.898Z,12.00
2017-11-14T04:11:00.044Z,15.00
2017-11-14T04:13:28.072Z,10.13
2017-11-14T04:15:56.085Z,11.63
2017-11-14T04:18:24.432Z,11.73
2017-11-14T04:20:52.507Z,10.10
2017-11-14T04:23:20.501Z,8.40
2017-11-14T04:25:48.498Z,10.30
2017-11-14T04:28:16.487Z,9.53
2017-11-14T04:30:44.531Z,10.70
2017-11-14T04:33:12.784Z,9.97
2017-11-14T04:35:40.852Z,10.40
2017-11-14T04:38:08.862Z,9.13
2017-11-14T04:40:37.004Z,8.33
2017-11-14T04:43:05.015Z,11.20
2017-11-14T04:45:33.137Z,8.37
2017-11-14T04:48:01.407Z,10.10
2017-11-14T04:50:30.390Z,9.27
2017-11-14T04:52:58.574Z,8.30
2017-11-14T04:55:26.594Z,10.77
2017-11-14T04:57:54.665Z,8.53
2017-11-14T05:00:22.783Z,14.77
2017-11-14T05:02:50.826Z,10.30
2017-11-14T05:05:18.838Z,11.93
2017-11-14T05:07:46.910Z,10.20
2017-11-14T05:10:14.987Z,10.20
2017-11-14T05:12:43.054Z,9.53
2017-11-14T05:15:11.021Z,9.10
2017-11-14T05:17:39.011Z,10.20
2017-11-14T05:20:08.086Z,8.50
2017-11-14T05:22:37.300Z,10.23
2017-11-14T05:25:06.873Z,11.97
2017-11-14T05:27:38.540Z,21.40
2017-11-14T05:30:07.311Z,10.20
2017-11-14T05:32:35.970Z,10.00
2017-11-14T05:35:04.003Z,10.57
2017-11-14T05:37:32.386Z,12.30
2017-11-14T05:40:00.456Z,11.17
2017-11-14T05:42:28.517Z,12.27
2017-11-14T05:44:56.539Z,11.47
2017-11-14T05:47:24.536Z,12.00
2017-11-14T05:49:55.001Z,17.93
2017-11-14T05:52:23.068Z,11.83
2017-11-14T05:54:51.109Z,14.07
2017-11-14T05:57:19.181Z,12.23
2017-11-14T05:59:47.773Z,11.17
2017-11-14T06:02:16.063Z,12.97
2017-11-14T06:04:44.078Z,11.37
2017-11-14T06:07:12.189Z,13.23
2017-11-14T06:09:40.261Z,15.60
2017-11-14T06:12:08.385Z,13.30
2017-11-14T06:14:36.452Z,11.40
2017-11-14T06:17:04.514Z,12.43
2017-11-14T06:19:32.577Z,13.47
2017-11-14T06:22:01.290Z,13.97
2017-11-14T06:24:29.259Z,16.67
2017-11-14T06:26:58.366Z,13.03
2017-11-14T06:29:26.392Z,14.20
2017-11-14T06:31:54.426Z,11.70
2017-11-14T06:34:22.664Z,13.73
2017-11-14T06:36:50.693Z,16.50
2017-11-14T06:39:18.797Z,16.90
2017-11-14T06:41:47.231Z,15.40
2017-11-14T06:44:16.366Z,16.07
2017-11-14T06:46:44.549Z,15.77
2017-11-14T06:49:13.748Z,14.90
2017-11-14T06:51:41.809Z,15.20
2017-11-14T06:54:10.606Z,17.47
2017-11-14T06:56:39.404Z,15.83
2017-11-14T06:59:08.173Z,16.83
2017-11-14T07:01:37.326Z,17.40
2017-11-14T07:04:05.522Z,17.10
2017-11-14T07:06:33.665Z,16.23
2017-11-14T07:09:01.874Z,22.40
2017-11-14T07:11:29.948Z,17.40
2017-11-14T07:13:57.975Z,18.90
2017-11-14T07:16:26.043Z,20.87
2017-11-14T07:18:54.166Z,18.90
2017-11-14T07:21:22.266Z,18.47
2017-11-14T07:23:50.350Z,17.20
2017-11-14T07:26:18.436Z,15.50
2017-11-14T07:28:46.679Z,17.10
2017-11-14T07:31:17.006Z,17.00
2017-11-14T07:33:45.152Z,17.27
2017-11-14T07:36:13.478Z,15.13
2017-11-14T07:38:41.495Z,15.63
2017-11-14T07:41:09.674Z,15.87
2017-11-14T07:43:38.147Z,14.97
2017-11-14T07:46:07.649Z,16.83
2017-11-14T07:48:36.070Z,19.63
2017-11-14T07:51:09.185Z,15.33
2017-11-14T07:53:39.505Z,17.97
2017-11-14T07:56:07.930Z,16.00
2017-11-14T07:58:36.080Z,16.53
2017-11-14T08:01:04.145Z,16.03
2017-11-14T08:03:33.477Z,15.60
2017-11-14T08:06:08.039Z,15.20
2017-11-14T08:08:36.452Z,16.87
2017-11-14T08:11:04.670Z,16.83
2017-11-14T08:13:32.931Z,16.53
2017-11-14T08:16:00.975Z,23.13
2017-11-14T08:18:30.582Z,14.57
2017-11-14T08:20:59.360Z,16.67
2017-11-14T08:23:30.815Z,16.57
2017-11-14T08:26:00.317Z,15.90
2017-11-14T08:28:28.434Z,15.10
2017-11-14T08:30:56.407Z,14.40
2017-11-14T08:33:24.578Z,19.27
2017-11-14T08:35:53.665Z,17.47
2017-11-14T08:38:21.692Z,17.03
2017-11-14T08:40:52.396Z,15.37
2017-11-14T08:43:20.669Z,15.73
2017-11-14T08:45:51.073Z,14.13
2017-11-14T08:48:20.478Z,17.23
2017-11-14T08:50:48.556Z,15.47
2017-11-14T08:53:16.559Z,14.73
2017-11-14T08:55:46.184Z,17.03
2017-11-14T08:58:14.930Z,14.60
2017-11-14T09:00:44.666Z,15.67
2017-11-14T09:03:14.661Z,15.30
2017-11-14T09:05:45.939Z,13.60
2017-11-14T09:08:13.926Z,13.40
2017-11-14T09:10:41.943Z,15.17
2017-11-14T09:13:10.704Z,19.93
2017-11-14T09:15:39.027Z,20.20
2017-11-14T09:18:07.117Z,17.40
2017-11-14T09:20:35.109Z,16.30
2017-11-14T09:23:04.406Z,13.50
2017-11-14T09:25:32.517Z,10.90
2017-11-14T09:28:00.695Z,14.63
2017-11-14T09:30:28.772Z,13.07
2017-11-14T09:32:56.937Z,11.87
2017-11-14T09:35:24.988Z,13.47
2017-11-14T09:37:53.571Z,11.80
2017-11-14T09:40:22.388Z,13.20
2017-11-14T09:42:50.460Z,15.37
2017-11-14T09:45:18.528Z,11.53
2017-11-14T09:47:46.708Z,11.60
2017-11-14T09:50:14.743Z,12.17
2017-11-14T09:52:42.814Z,11.17
2017-11-14T09:55:10.961Z,17.20
2017-11-14T09:57:39.228Z,10.37
2017-11-14T10:00:07.339Z,15.13
2017-11-14T10:02:35.931Z,14.43
2017-11-14T10:05:05.230Z,12.50
2017-11-14T10:07:34.598Z,10.23
2017-11-14T10:10:02.746Z,17.97
2017-11-14T10:12:30.848Z,10.57
2017-11-14T10:15:04.520Z,12.53
2017-11-14T10:17:33.912Z,11.20
2017-11-14T10:20:04.801Z,11.10
2017-11-14T10:22:33.945Z,16.70
2017-11-14T10:25:02.077Z,10.20
2017-11-14T10:27:30.982Z,10.10
2017-11-14T10:29:59.008Z,13.23
2017-11-14T10:32:27.191Z,10.60
2017-11-14T10:34:55.334Z,13.97
2017-11-14T10:37:23.373Z,8.70
2017-11-14T10:39:51.398Z,12.70
2017-11-14T10:42:19.571Z,11.40
2017-11-14T10:44:47.639Z,9.03
2017-11-14T10:47:15.658Z,13.57
2017-11-14T10:49:43.782Z,13.73
2017-11-14T10:52:12.006Z,8.93
2017-11-14T10:54:40.159Z,13.40
2017-11-14T10:57:08.530Z,12.13
2017-11-14T10:59:36.788Z,10.73
2017-11-14T11:02:05.166Z,10.97
2017-11-14T11:04:33.457Z,7.03
2017-11-14T11:07:01.544Z,9.67
2017-11-14T11:09:29.676Z,9.77
2017-11-14T11:11:58.708Z,10.73
2017-11-14T11:14:26.860Z,12.50
2017-11-14T11:16:55.027Z,9.20
2017-11-14T11:19:28.363Z,16.20
2017-11-14T11:21:57.107Z,13.37
2017-11-14T11:24:25.828Z,10.73
2017-11-14T11:26:56.064Z,17.97
2017-11-14T11:29:24.089Z,10.17
2017-11-14T11:31:53.568Z,13.20
2017-11-14T11:34:22.838Z,8.93
2017-11-14T11:36:53.549Z,9.40
2017-11-14T11:39:22.837Z,10.33
2017-11-14T11:41:51.226Z,13.90
2017-11-14T11:44:19.505Z,10.53
2017-11-14T11:46:47.667Z,9.17
2017-11-14T11:49:16.700Z,8.10
2017-11-14T11:51:47.313Z,10.97
2017-11-14T11:54:16.736Z,13.30
2017-11-14T11:56:44.840Z,13.37
2017-11-14T11:59:14.493Z,9.77
2017-11-14T12:01:42.689Z,13.23
2017-11-14T12:04:11.577Z,10.00
2017-11-14T12:06:41.628Z,11.53
2017-11-14T12:09:09.833Z,8.40
2017-11-14T12:11:38.267Z,8.00
2017-11-14T12:14:06.673Z,9.57
2017-11-14T12:16:35.866Z,9.97
2017-11-14T12:19:03.982Z,10.80
2017-11-14T12:21:31.984Z,11.50
2017-11-14T12:24:01.275Z,8.47
2017-11-14T12:26:30.468Z,7.43
2017-11-14T12:28:59.250Z,8.30
2017-11-14T12:31:28.243Z,8.27
2017-11-14T12:33:56.417Z,11.07
2017-11-14T12:36:26.439Z,9.70
2017-11-14T12:38:56.482Z,8.13
2017-11-14T12:41:24.748Z,6.50
2017-11-14T12:43:54.007Z,11.03
2017-11-14T12:46:23.873Z,7.13
2017-11-14T12:48:53.863Z,7.70
2017-11-14T12:51:21.914Z,14.50
2017-11-14T12:53:51.834Z,8.53
2017-11-14T12:56:24.310Z,9.23
2017-11-14T12:58:53.560Z,11.47
2017-11-14T13:01:22.148Z,10.20
2017-11-14T13:03:50.284Z,15.23
2017-11-14T13:06:20.122Z,13.90
2017-11-14T13:08:48.163Z,8.53
2017-11-14T13:11:16.332Z,14.93
2017-11-14T13:13:45.213Z,12.93
2017-11-14T13:16:13.218Z,8.80
2017-11-14T13:18:41.433Z,13.43
2017-11-14T13:21:09.494Z,15.20
2017-11-14T13:23:37.817Z,6.80
2017-11-14T13:26:05.881Z,11.80
2017-11-14T13:28:33.816Z,9.70
2017-11-14T13:31:01.788Z,13.40
2017-11-14T13:33:29.926Z,9.57
2017-11-14T13:35:58.303Z,9.77
2017-11-14T13:38:28.706Z,10.00
2017-11-14T13:40:56.983Z,10.40
2017-11-14T13:43:25.515Z,10.40
2017-11-14T13:45:53.638Z,7.03
2017-11-14T13:48:21.952Z,10.70
2017-11-14T13:50:51.134Z,10.47
2017-11-14T13:53:19.309Z,12.27
2017-11-14T13:55:48.116Z,11.13
2017-11-14T13:58:17.089Z,6.30
2017-11-14T14:00:46.223Z,11.23
2017-11-14T14:03:14.366Z,7.47
2017-11-14T14:05:46.886Z,9.00
2017-11-14T14:08:14.984Z,8.70
2017-11-14T14:10:44.363Z,11.63
2017-11-14T14:13:16.086Z,11.87
2017-11-14T14:15:44.178Z,12.87
2017-11-14T14:18:12.324Z,11.77
2017-11-14T14:20:40.725Z,8.60
2017-11-14T14:23:09.122Z,9.37
2017-11-14T14:25:37.437Z,10.23
2017-11-14T14:28:05.836Z,9.20
2017-11-14T14:30:34.555Z,10.53
2017-11-14T14:33:02.744Z,11.63
2017-11-14T14:35:30.809Z,14.80
2017-11-14T14:37:58.966Z,10.90
2017-11-14T14:40:28.404Z,11.40
2017-11-14T14:42:57.217Z,10.50
2017-11-14T14:45:25.422Z,14.33
2017-11-14T14:47:53.691Z,8.87
2017-11-14T14:50:22.055Z,9.20
2017-11-14T14:52:51.540Z,12.90
2017-11-14T14:55:20.293Z,10.60
2017-11-14T14:57:48.476Z,9.90
2017-11-14T15:00:18.632Z,11.40
2017-11-14T15:02:48.523Z,11.20
2017-11-14T15:05:16.576Z,12.93
2017-11-14T15:07:44.844Z,10.43
2017-11-14T15:10:15.113Z,9.97
2017-11-14T15:12:44.581Z,13.07
2017-11-14T15:15:13.528Z,17.83
2017-11-14T15:17:41.599Z,12.73
2017-11-14T15:20:11.126Z,11.80
2017-11-14T15:22:40.088Z,12.80
2017-11-14T15:25:09.781Z,13.63
2017-11-14T15:27:38.206Z,15.40
2017-11-14T15:30:08.231Z,15.23
2017-11-14T15:32:37.089Z,14.73
2017-11-14T15:35:05.117Z,14.77
2017-11-14T15:37:33.247Z,15.93
2017-11-14T15:40:01.506Z,15.73
2017-11-14T15:42:29.685Z,20.70
2017-11-14T15:44:58.321Z,19.37
2017-11-14T15:47:28.089Z,16.77
2017-11-14T15:49:56.128Z,17.70
2017-11-14T15:52:24.280Z,18.53
2017-11-14T15:54:52.483Z,18.67
2017-11-14T15:57:22.661Z,19.73
2017-11-14T15:59:50.742Z,19.43
2017-11-14T16:02:19.183Z,19.97
2017-11-14T16:04:48.835Z,21.80
2017-11-14T16:07:18.019Z,20.13
2017-11-14T16:09:47.771Z,22.50
2017-11-14T16:12:16.116Z,21.13
2017-11-14T16:14:44.770Z,19.87
2017-11-14T16:17:13.044Z,20.37
2017-11-14T16:19:41.113Z,22.77
2017-11-14T16:22:09.633Z,23.67
2017-11-14T16:24:37.635Z,22.13
2017-11-14T16:27:06.536Z,22.60
2017-11-14T16:29:34.628Z,23.07
2017-11-14T16:32:02.788Z,21.27
2017-11-14T16:34:31.727Z,23.10
2017-11-14T16:36:59.836Z,25.20
2017-11-14T16:39:27.756Z,25.27
2017-11-14T16:41:55.756Z,31.43
2017-11-14T16:44:24.836Z,27.67
2017-11-14T16:46:53.426Z,37.60
2017-11-14T16:49:21.772Z,21.70
2017-11-14T16:51:49.948Z,24.10
2017-11-14T16:54:17.999Z,19.80
2017-11-14T16:56:46.009Z,23.03
2017-11-14T16:59:14.064Z,29.13
2017-11-14T17:01:42.065Z,28.73
2017-11-14T17:04:10.102Z,24.10
2017-11-14T17:06:38.183Z,23.53
2017-11-14T17:09:06.153Z,23.70
2017-11-14T17:11:34.213Z,24.60
2017-11-14T17:14:02.137Z,25.30
2017-11-14T17:16:30.122Z,25.27
2017-11-14T17:18:58.152Z,24.30
2017-11-14T17:21:26.163Z,24.37
2017-11-14T17:23:54.469Z,25.53
2017-11-14T17:26:22.609Z,25.47
2017-11-14T17:28:52.442Z,27.23
2017-11-14T17:31:21.274Z,29.50
2017-11-14T17:33:50.933Z,32.90
2017-11-14T17:36:19.215Z,27.27
2017-11-14T17:38:57.936Z,26.37
2017-11-14T17:41:28.870Z,39.20
2017-11-14T17:43:57.622Z,32.50
2017-11-14T17:46:25.797Z,27.47
2017-11-14T17:48:54.134Z,26.80
2017-11-14T17:51:22.217Z,31.00
2017-11-14T17:53:51.473Z,25.63
2017-11-14T17:56:19.588Z,23.50
2017-11-14T17:58:48.719Z,22.93
2017-11-14T18:01:17.054Z,24.90
2017-11-14T18:03:45.261Z,24.50
2017-11-14T18:06:14.087Z,22.57
2017-11-14T18:08:42.119Z,25.60
2017-11-14T18:11:10.289Z,23.53
2017-11-14T18:13:39.267Z,25.00
2017-11-14T18:16:08.528Z,23.37
2017-11-14T18:18:36.756Z,24.00
2017-11-14T18:21:05.346Z,23.33
2017-11-14T18:23:34.490Z,26.50
2017-11-14T18:26:02.504Z,25.10
2017-11-14T18:28:30.695Z,22.80
2017-11-14T18:30:58.762Z,20.70
2017-11-14T18:33:27.026Z,20.20
2017-11-14T18:35:55.104Z,24.13
2017-11-14T18:38:23.790Z,28.17
2017-11-14T18:40:51.964Z,27.30
2017-11-14T18:43:20.673Z,22.20
2017-11-14T18:45:48.779Z,22.33
2017-11-14T18:48:16.862Z,20.97
2017-11-14T18:50:45.615Z,24.60
2017-11-14T18:53:20.412Z,22.50
2017-11-14T18:55:48.879Z,23.47
2017-11-14T18:58:16.866Z,22.63
2017-11-14T19:00:44.862Z,25.17
2017-11-14T19:03:12.876Z,25.40
2017-11-14T19:05:40.845Z,22.73
2017-11-14T19:08:08.843Z,21.20
2017-11-14T19:10:36.883Z,24.47
2017-11-14T19:13:05.058Z,26.10
2017-11-14T19:15:33.053Z,22.87
2017-11-14T19:18:01.076Z,26.60
2017-11-14T19:20:30.105Z,28.03
2017-11-14T19:22:58.996Z,25.37
2017-11-14T19:25:27.322Z,25.10
2017-11-14T19:27:55.403Z,30.80
2017-11-14T19:30:23.520Z,25.10
2017-11-14T19:32:51.696Z,24.67
2017-11-14T19:35:19.664Z,29.30
2017-11-14T19:37:47.795Z,25.40
2017-11-14T19:40:15.729Z,25.13
2017-11-14T19:42:43.716Z,28.57
2017-11-14T19:45:11.779Z,31.57
2017-11-14T19:47:39.739Z,27.83
2017-11-14T19:50:07.717Z,27.03
2017-11-14T19:52:35.655Z,26.70
2017-11-14T19:55:03.657Z,29.83
2017-11-14T19:57:31.719Z,24.87
2017-11-14T19:59:59.733Z,25.40
2017-11-14T20:02:27.665Z,37.93
2017-11-14T20:04:55.602Z,21.67
2017-11-14T20:07:23.539Z,28.20
2017-11-14T20:09:51.629Z,25.27
2017-11-14T20:12:19.664Z,24.73
2017-11-14T20:14:48.293Z,27.63
2017-11-14T20:17:16.371Z,22.77
2017-11-14T20:19:44.781Z,27.23
2017-11-14T20:22:13.847Z,25.87
2017-11-14T20:24:41.848Z,30.67
2017-11-14T20:27:09.819Z,26.67
2017-11-14T20:29:37.775Z,27.07
2017-11-14T20:32:05.819Z,33.37
2017-11-14T20:34:33.804Z,31.90
2017-11-14T20:37:02.135Z,37.93
2017-11-14T20:39:30.176Z,28.13
2017-11-14T20:41:58.248Z,27.60
2017-11-14T20:44:26.216Z,37.20
2017-11-14T20:46:54.671Z,27.80
2017-11-14T20:49:22.992Z,34.00
2017-11-14T20:51:51.896Z,30.00
2017-11-14T20:54:20.652Z,32.50
2017-11-14T20:56:48.623Z,32.13
2017-11-14T20:59:16.619Z,33.73
2017-11-14T21:01:45.179Z,32.10
2017-11-14T21:04:13.144Z,32.10
2017-11-14T21:06:41.755Z,36.43
2017-11-14T21:09:09.676Z,36.77
2017-11-14T21:11:38.622Z,34.87
2017-11-14T21:14:06.631Z,33.27
2017-11-14T21:16:34.821Z,39.17
2017-11-14T21:19:02.853Z,36.80
2017-11-14T21:21:30.846Z,32.50
2017-11-14T21:23:58.856Z,41.57
2017-11-14T21:26:26.818Z,29.37
2017-11-14T21:28:54.799Z,41.37
2017-11-14T21:31:22.898Z,40.10
2017-11-14T21:33:52.128Z,35.57
2017-11-14T21:36:20.143Z,43.43
2017-11-14T21:38:48.226Z,32.70
2017-11-14T21:41:16.984Z,30.30
2017-11-14T21:43:44.963Z,30.97
2017-11-14T21:46:12.901Z,35.93
2017-11-14T21:48:40.918Z,48.10
2017-11-14T21:51:08.912Z,34.77
2017-11-14T21:53:36.968Z,42.83
2017-11-14T21:56:04.929Z,36.80
2017-11-14T21:58:33.064Z,32.13
2017-11-14T22:01:01.049Z,31.87
2017-11-14T22:03:29.094Z,36.83
2017-11-14T22:05:57.060Z,33.57
2017-11-14T22:08:25.184Z,31.23
2017-11-14T22:10:53.229Z,41.33
2017-11-14T22:13:21.198Z,33.57
2017-11-14T22:15:49.136Z,33.37
2017-11-14T22:18:17.102Z,35.43
2017-11-14T22:20:45.076Z,33.40
2017-11-14T22:23:13.069Z,33.70
2017-11-14T22:25:41.050Z,31.20
2017-11-14T22:28:09.097Z,32.10
2017-11-14T22:30:37.095Z,34.83
2017-11-14T22:33:05.069Z,32.13
2017-11-14T22:35:33.033Z,37.33
2017-11-14T22:38:00.995Z,37.60
2017-11-14T22:40:29.132Z,33.53
2017-11-14T22:42:57.141Z,38.30
2017-11-14T22:45:25.113Z,33.07
2017-11-14T22:47:53.077Z,35.43
2017-11-14T22:50:21.174Z,40.93
2017-11-14T22:52:49.167Z,44.13
2017-11-14T22:55:17.158Z,40.03
2017-11-14T22:57:45.233Z,36.00
2017-11-14T23:00:25.390Z,35.03
2017-11-14T23:02:53.413Z,31.00
2017-11-14T23:05:21.389Z,36.67
2017-11-14T23:07:49.584Z,35.63
2017-11-14T23:10:19.040Z,44.50
2017-11-14T23:12:47.151Z,33.37
2017-11-14T23:15:15.185Z,35.87
2017-11-14T23:17:43.191Z,43.07
2017-11-14T23:20:11.236Z,42.73
2017-11-14T23:22:39.265Z,38.20
2017-11-14T23:25:07.336Z,36.23
2017-11-14T23:27:35.310Z,32.77
2017-11-14T23:30:03.308Z,37.67
2017-11-14T23:32:31.410Z,36.63
2017-11-14T23:34:59.429Z,35.53
2017-11-14T23:37:27.536Z,39.03
2017-11-14T23:39:55.462Z,36.03
2017-11-14T23:42:23.427Z,41.97
2017-11-14T23:44:51.442Z,47.77
2017-11-14T23:47:19.771Z,45.60
2017-11-14T23:49:47.714Z,40.33
2017-11-14T23:52:15.761Z,39.40
2017-11-14T23:54:43.759Z,31.40
2017-11-14T23:57:11.802Z,39.30
2017-11-14T23:59:39.838Z,40.70
